sensor_id;sensor_type;location;lat;lon;timestamp;P1;durP1;ratioP1;P2;durP2;ratioP2
17592;SDS011;8915;51.760;14.300;2022-08-21T00:01:09;15.80;;;9.37;;
17592;SDS011;8915;51.760;14.300;2022-08-21T00:03:38;14.00;;;8.90;;
17592;SDS011;8915;51.760;14.300;2022-08-21T00:06:05;18.07;;;10.00;;
17592;SDS011;8915;51.760;14.300;2022-08-21T00:08:32;13.90;;;9.30;;
17592;SDS011;8915;51.760;14.300;2022-08-21T00:11:00;19.23;;;10.80;;
17592;SDS011;8915;51.760;14.300;2022-08-21T00:13:27;18.20;;;9.93;;
17592;SDS011;8915;51.760;14.300;2022-08-21T00:15:53;16.17;;;9.17;;
17592;SDS011;8915;51.760;14.300;2022-08-21T00:18:20;16.13;;;9.97;;
17592;SDS011;8915;51.760;14.300;2022-08-21T00:20:47;14.87;;;9.33;;
17592;SDS011;8915;51.760;14.300;2022-08-21T00:23:13;16.87;;;9.60;;
17592;SDS011;8915;51.760;14.300;2022-08-21T00:25:41;14.17;;;9.30;;
17592;SDS011;8915;51.760;14.300;2022-08-21T00:28:11;14.40;;;9.77;;
17592;SDS011;8915;51.760;14.300;2022-08-21T00:30:38;15.30;;;9.60;;
17592;SDS011;8915;51.760;14.300;2022-08-21T00:33:05;15.40;;;9.77;;
17592;SDS011;8915;51.760;14.300;2022-08-21T00:35:34;13.60;;;9.17;;
17592;SDS011;8915;51.760;14.300;2022-08-21T00:38:03;19.17;;;10.33;;
17592;SDS011;8915;51.760;14.300;2022-08-21T00:40:34;15.57;;;9.97;;
17592;SDS011;8915;51.760;14.300;2022-08-21T00:43:03;16.10;;;10.30;;
17592;SDS011;8915;51.760;14.300;2022-08-21T00:45:33;12.67;;;9.37;;
17592;SDS011;8915;51.760;14.300;2022-08-21T00:48:00;13.03;;;8.97;;
17592;SDS011;8915;51.760;14.300;2022-08-21T00:50:28;16.27;;;8.97;;
17592;SDS011;8915;51.760;14.300;2022-08-21T00:52:59;14.77;;;9.30;;
17592;SDS011;8915;51.760;14.300;2022-08-21T00:55:27;15.10;;;9.33;;
17592;SDS011;8915;51.760;14.300;2022-08-21T00:57:56;15.23;;;9.53;;
17592;SDS011;8915;51.760;14.300;2022-08-21T01:00:26;13.53;;;9.17;;
17592;SDS011;8915;51.760;14.300;2022-08-21T01:02:57;15.10;;;10.27;;
17592;SDS011;8915;51.760;14.300;2022-08-21T01:05:24;16.67;;;9.63;;
17592;SDS011;8915;51.760;14.300;2022-08-21T01:07:51;15.13;;;10.10;;
17592;SDS011;8915;51.760;14.300;2022-08-21T01:10:19;14.30;;;9.80;;
17592;SDS011;8915;51.760;14.300;2022-08-21T01:12:45;15.33;;;9.10;;
17592;SDS011;8915;51.760;14.300;2022-08-21T01:15:12;15.23;;;9.43;;
17592;SDS011;8915;51.760;14.300;2022-08-21T01:17:40;15.07;;;9.57;;
17592;SDS011;8915;51.760;14.300;2022-08-21T01:20:09;15.33;;;9.57;;
17592;SDS011;8915;51.760;14.300;2022-08-21T01:22:38;14.40;;;9.00;;
17592;SDS011;8915;51.760;14.300;2022-08-21T01:25:06;14.93;;;9.77;;
17592;SDS011;8915;51.760;14.300;2022-08-21T01:27:34;16.13;;;9.97;;
17592;SDS011;8915;51.760;14.300;2022-08-21T01:30:03;14.80;;;9.50;;
17592;SDS011;8915;51.760;14.300;2022-08-21T01:32:36;16.00;;;10.13;;
17592;SDS011;8915;51.760;14.300;2022-08-21T01:35:03;16.53;;;10.17;;
17592;SDS011;8915;51.760;14.300;2022-08-21T01:37:30;15.87;;;9.93;;
17592;SDS011;8915;51.760;14.300;2022-08-21T01:39:58;14.53;;;9.43;;
17592;SDS011;8915;51.760;14.300;2022-08-21T01:42:24;17.67;;;10.57;;
17592;SDS011;8915;51.760;14.300;2022-08-21T01:44:51;16.90;;;9.77;;
17592;SDS011;8915;51.760;14.300;2022-08-21T01:47:18;13.60;;;9.40;;
17592;SDS011;8915;51.760;14.300;2022-08-21T01:49:44;17.17;;;10.50;;
17592;SDS011;8915;51.760;14.300;2022-08-21T01:52:11;17.20;;;10.00;;
17592;SDS011;8915;51.760;14.300;2022-08-21T01:54:38;14.37;;;9.57;;
17592;SDS011;8915;51.760;14.300;2022-08-21T01:57:06;13.13;;;9.57;;
17592;SDS011;8915;51.760;14.300;2022-08-21T01:59:34;16.30;;;10.50;;
17592;SDS011;8915;51.760;14.300;2022-08-21T02:02:01;15.67;;;9.50;;
17592;SDS011;8915;51.760;14.300;2022-08-21T02:04:28;15.30;;;9.23;;
17592;SDS011;8915;51.760;14.300;2022-08-21T02:06:55;18.77;;;10.17;;
17592;SDS011;8915;51.760;14.300;2022-08-21T02:09:22;13.43;;;9.20;;
17592;SDS011;8915;51.760;14.300;2022-08-21T02:11:48;16.63;;;10.07;;
17592;SDS011;8915;51.760;14.300;2022-08-21T02:14:16;14.67;;;10.03;;
17592;SDS011;8915;51.760;14.300;2022-08-21T02:16:43;16.17;;;10.40;;
17592;SDS011;8915;51.760;14.300;2022-08-21T02:19:10;18.40;;;9.57;;
17592;SDS011;8915;51.760;14.300;2022-08-21T02:21:39;16.00;;;9.93;;
17592;SDS011;8915;51.760;14.300;2022-08-21T02:24:06;17.97;;;10.57;;
17592;SDS011;8915;51.760;14.300;2022-08-21T02:26:32;14.60;;;9.70;;
17592;SDS011;8915;51.760;14.300;2022-08-21T02:28:59;15.97;;;9.73;;
17592;SDS011;8915;51.760;14.300;2022-08-21T02:31:27;15.63;;;9.87;;
17592;SDS011;8915;51.760;14.300;2022-08-21T02:33:54;13.43;;;9.20;;
17592;SDS011;8915;51.760;14.300;2022-08-21T02:36:20;16.33;;;9.73;;
17592;SDS011;8915;51.760;14.300;2022-08-21T02:38:47;12.13;;;9.13;;
17592;SDS011;8915;51.760;14.300;2022-08-21T02:41:15;13.67;;;9.17;;
17592;SDS011;8915;51.760;14.300;2022-08-21T02:43:43;14.03;;;9.10;;
17592;SDS011;8915;51.760;14.300;2022-08-21T02:46:11;14.17;;;9.43;;
17592;SDS011;8915;51.760;14.300;2022-08-21T02:48:40;16.60;;;10.43;;
17592;SDS011;8915;51.760;14.300;2022-08-21T02:51:08;14.97;;;9.27;;
17592;SDS011;8915;51.760;14.300;2022-08-21T02:53:37;13.17;;;8.40;;
17592;SDS011;8915;51.760;14.300;2022-08-21T02:56:06;12.97;;;8.70;;
17592;SDS011;8915;51.760;14.300;2022-08-21T02:58:37;12.93;;;9.07;;
17592;SDS011;8915;51.760;14.300;2022-08-21T03:01:05;13.80;;;8.93;;
17592;SDS011;8915;51.760;14.300;2022-08-21T03:03:35;12.80;;;8.70;;
17592;SDS011;8915;51.760;14.300;2022-08-21T03:06:04;13.83;;;8.60;;
17592;SDS011;8915;51.760;14.300;2022-08-21T03:08:31;13.43;;;9.13;;
17592;SDS011;8915;51.760;14.300;2022-08-21T03:10:58;14.03;;;9.40;;
17592;SDS011;8915;51.760;14.300;2022-08-21T03:13:25;11.23;;;8.23;;
17592;SDS011;8915;51.760;14.300;2022-08-21T03:15:52;13.53;;;9.63;;
17592;SDS011;8915;51.760;14.300;2022-08-21T03:18:20;13.57;;;8.33;;
17592;SDS011;8915;51.760;14.300;2022-08-21T03:20:46;14.20;;;8.43;;
17592;SDS011;8915;51.760;14.300;2022-08-21T03:23:15;10.93;;;7.87;;
17592;SDS011;8915;51.760;14.300;2022-08-21T03:25:43;12.50;;;7.57;;
17592;SDS011;8915;51.760;14.300;2022-08-21T03:28:10;10.53;;;7.60;;
17592;SDS011;8915;51.760;14.300;2022-08-21T03:30:39;10.00;;;6.60;;
17592;SDS011;8915;51.760;14.300;2022-08-21T03:33:06;10.33;;;7.17;;
17592;SDS011;8915;51.760;14.300;2022-08-21T03:35:32;12.93;;;7.57;;
17592;SDS011;8915;51.760;14.300;2022-08-21T03:37:59;11.30;;;7.47;;
17592;SDS011;8915;51.760;14.300;2022-08-21T03:40:27;12.33;;;7.20;;
17592;SDS011;8915;51.760;14.300;2022-08-21T03:42:53;8.80;;;6.60;;
17592;SDS011;8915;51.760;14.300;2022-08-21T03:45:20;11.23;;;6.53;;
17592;SDS011;8915;51.760;14.300;2022-08-21T03:47:50;9.20;;;5.80;;
17592;SDS011;8915;51.760;14.300;2022-08-21T03:50:18;8.27;;;6.10;;
17592;SDS011;8915;51.760;14.300;2022-08-21T03:52:44;8.47;;;5.90;;
17592;SDS011;8915;51.760;14.300;2022-08-21T03:55:11;8.23;;;6.23;;
17592;SDS011;8915;51.760;14.300;2022-08-21T03:57:38;8.43;;;6.60;;
17592;SDS011;8915;51.760;14.300;2022-08-21T04:00:05;10.77;;;7.57;;
17592;SDS011;8915;51.760;14.300;2022-08-21T04:02:36;9.50;;;6.53;;
17592;SDS011;8915;51.760;14.300;2022-08-21T04:05:03;9.70;;;6.40;;
17592;SDS011;8915;51.760;14.300;2022-08-21T04:07:31;10.70;;;6.53;;
17592;SDS011;8915;51.760;14.300;2022-08-21T04:09:57;9.10;;;6.83;;
17592;SDS011;8915;51.760;14.300;2022-08-21T04:12:24;7.13;;;5.63;;
17592;SDS011;8915;51.760;14.300;2022-08-21T04:14:51;8.80;;;6.43;;
17592;SDS011;8915;51.760;14.300;2022-08-21T04:17:18;7.03;;;5.40;;
17592;SDS011;8915;51.760;14.300;2022-08-21T04:19:44;7.97;;;5.70;;
17592;SDS011;8915;51.760;14.300;2022-08-21T04:22:11;9.20;;;5.87;;
17592;SDS011;8915;51.760;14.300;2022-08-21T04:24:38;8.37;;;6.40;;
17592;SDS011;8915;51.760;14.300;2022-08-21T04:27:04;8.10;;;6.20;;
17592;SDS011;8915;51.760;14.300;2022-08-21T04:29:31;9.10;;;6.43;;
17592;SDS011;8915;51.760;14.300;2022-08-21T04:31:58;10.73;;;6.50;;
17592;SDS011;8915;51.760;14.300;2022-08-21T04:34:25;7.60;;;5.97;;
17592;SDS011;8915;51.760;14.300;2022-08-21T04:36:51;13.97;;;7.20;;
17592;SDS011;8915;51.760;14.300;2022-08-21T04:39:18;10.13;;;6.33;;
17592;SDS011;8915;51.760;14.300;2022-08-21T04:41:44;8.63;;;6.07;;
17592;SDS011;8915;51.760;14.300;2022-08-21T04:44:11;9.57;;;6.70;;
17592;SDS011;8915;51.760;14.300;2022-08-21T04:46:37;8.53;;;6.57;;
17592;SDS011;8915;51.760;14.300;2022-08-21T04:49:05;7.57;;;5.70;;
17592;SDS011;8915;51.760;14.300;2022-08-21T04:51:32;7.70;;;6.27;;
17592;SDS011;8915;51.760;14.300;2022-08-21T04:54:02;9.30;;;6.73;;
17592;SDS011;8915;51.760;14.300;2022-08-21T04:56:35;9.80;;;6.80;;
17592;SDS011;8915;51.760;14.300;2022-08-21T04:59:05;10.87;;;7.33;;
17592;SDS011;8915;51.760;14.300;2022-08-21T05:01:37;11.43;;;7.13;;
17592;SDS011;8915;51.760;14.300;2022-08-21T05:04:07;13.23;;;7.83;;
17592;SDS011;8915;51.760;14.300;2022-08-21T05:06:36;10.70;;;7.27;;
17592;SDS011;8915;51.760;14.300;2022-08-21T05:09:06;10.17;;;7.73;;
17592;SDS011;8915;51.760;14.300;2022-08-21T05:11:34;13.70;;;8.30;;
17592;SDS011;8915;51.760;14.300;2022-08-21T05:14:02;12.47;;;8.20;;
17592;SDS011;8915;51.760;14.300;2022-08-21T05:16:28;12.23;;;7.83;;
17592;SDS011;8915;51.760;14.300;2022-08-21T05:18:54;13.03;;;8.10;;
17592;SDS011;8915;51.760;14.300;2022-08-21T05:21:22;9.17;;;7.00;;
17592;SDS011;8915;51.760;14.300;2022-08-21T05:23:49;14.40;;;9.03;;
17592;SDS011;8915;51.760;14.300;2022-08-21T05:26:15;13.90;;;8.90;;
17592;SDS011;8915;51.760;14.300;2022-08-21T05:28:42;12.47;;;8.40;;
17592;SDS011;8915;51.760;14.300;2022-08-21T05:31:08;10.97;;;8.20;;
17592;SDS011;8915;51.760;14.300;2022-08-21T05:33:35;11.70;;;8.63;;
17592;SDS011;8915;51.760;14.300;2022-08-21T05:36:02;12.87;;;9.23;;
17592;SDS011;8915;51.760;14.300;2022-08-21T05:38:30;14.47;;;8.93;;
17592;SDS011;8915;51.760;14.300;2022-08-21T05:40:56;16.27;;;8.93;;
17592;SDS011;8915;51.760;14.300;2022-08-21T05:43:23;12.53;;;8.33;;
17592;SDS011;8915;51.760;14.300;2022-08-21T05:45:49;11.73;;;8.47;;
17592;SDS011;8915;51.760;14.300;2022-08-21T05:48:17;14.10;;;8.60;;
17592;SDS011;8915;51.760;14.300;2022-08-21T05:50:46;13.10;;;8.47;;
17592;SDS011;8915;51.760;14.300;2022-08-21T05:53:15;11.57;;;8.13;;
17592;SDS011;8915;51.760;14.300;2022-08-21T05:55:43;11.70;;;8.47;;
17592;SDS011;8915;51.760;14.300;2022-08-21T05:58:10;14.00;;;8.37;;
17592;SDS011;8915;51.760;14.300;2022-08-21T06:00:37;15.07;;;8.90;;
17592;SDS011;8915;51.760;14.300;2022-08-21T06:03:03;13.30;;;8.60;;
17592;SDS011;8915;51.760;14.300;2022-08-21T06:05:30;12.70;;;8.47;;
17592;SDS011;8915;51.760;14.300;2022-08-21T06:07:56;11.27;;;7.67;;
17592;SDS011;8915;51.760;14.300;2022-08-21T06:10:23;12.90;;;8.33;;
17592;SDS011;8915;51.760;14.300;2022-08-21T06:12:53;16.20;;;8.63;;
17592;SDS011;8915;51.760;14.300;2022-08-21T06:15:20;14.43;;;9.30;;
17592;SDS011;8915;51.760;14.300;2022-08-21T06:17:47;10.80;;;7.97;;
17592;SDS011;8915;51.760;14.300;2022-08-21T06:20:13;13.03;;;8.63;;
17592;SDS011;8915;51.760;14.300;2022-08-21T06:22:39;11.47;;;8.47;;
17592;SDS011;8915;51.760;14.300;2022-08-21T06:25:06;13.27;;;8.83;;
17592;SDS011;8915;51.760;14.300;2022-08-21T06:27:34;12.00;;;8.33;;
17592;SDS011;8915;51.760;14.300;2022-08-21T06:30:02;11.73;;;7.77;;
17592;SDS011;8915;51.760;14.300;2022-08-21T06:32:29;11.07;;;7.57;;
17592;SDS011;8915;51.760;14.300;2022-08-21T06:34:55;10.80;;;7.67;;
17592;SDS011;8915;51.760;14.300;2022-08-21T06:37:22;9.27;;;7.07;;
17592;SDS011;8915;51.760;14.300;2022-08-21T06:39:48;11.43;;;7.17;;
17592;SDS011;8915;51.760;14.300;2022-08-21T06:42:15;8.77;;;6.83;;
17592;SDS011;8915;51.760;14.300;2022-08-21T06:44:43;10.00;;;6.83;;
17592;SDS011;8915;51.760;14.300;2022-08-21T06:47:11;10.17;;;6.23;;
17592;SDS011;8915;51.760;14.300;2022-08-21T06:49:38;8.07;;;6.60;;
17592;SDS011;8915;51.760;14.300;2022-08-21T06:52:07;8.67;;;6.50;;
17592;SDS011;8915;51.760;14.300;2022-08-21T06:54:34;8.57;;;6.47;;
17592;SDS011;8915;51.760;14.300;2022-08-21T06:57:01;8.03;;;5.97;;
17592;SDS011;8915;51.760;14.300;2022-08-21T06:59:28;9.07;;;5.47;;
17592;SDS011;8915;51.760;14.300;2022-08-21T07:01:55;8.47;;;5.53;;
17592;SDS011;8915;51.760;14.300;2022-08-21T07:04:22;6.57;;;5.00;;
17592;SDS011;8915;51.760;14.300;2022-08-21T07:06:49;7.50;;;4.80;;
17592;SDS011;8915;51.760;14.300;2022-08-21T07:09:16;6.93;;;5.30;;
17592;SDS011;8915;51.760;14.300;2022-08-21T07:11:42;11.10;;;5.80;;
17592;SDS011;8915;51.760;14.300;2022-08-21T07:14:12;7.50;;;5.50;;
17592;SDS011;8915;51.760;14.300;2022-08-21T07:16:39;7.00;;;4.93;;
17592;SDS011;8915;51.760;14.300;2022-08-21T07:19:05;8.33;;;5.63;;
17592;SDS011;8915;51.760;14.300;2022-08-21T07:21:33;7.70;;;4.97;;
17592;SDS011;8915;51.760;14.300;2022-08-21T07:23:59;6.17;;;4.70;;
17592;SDS011;8915;51.760;14.300;2022-08-21T07:26:26;8.40;;;5.23;;
17592;SDS011;8915;51.760;14.300;2022-08-21T07:28:53;6.27;;;4.93;;
17592;SDS011;8915;51.760;14.300;2022-08-21T07:31:21;7.77;;;4.80;;
17592;SDS011;8915;51.760;14.300;2022-08-21T07:33:49;6.63;;;4.77;;
17592;SDS011;8915;51.760;14.300;2022-08-21T07:36:15;6.63;;;4.80;;
17592;SDS011;8915;51.760;14.300;2022-08-21T07:38:44;6.80;;;4.70;;
17592;SDS011;8915;51.760;14.300;2022-08-21T07:41:13;7.73;;;5.17;;
17592;SDS011;8915;51.760;14.300;2022-08-21T07:43:41;6.43;;;5.13;;
17592;SDS011;8915;51.760;14.300;2022-08-21T07:46:08;9.90;;;4.90;;
17592;SDS011;8915;51.760;14.300;2022-08-21T07:48:35;9.10;;;4.70;;
17592;SDS011;8915;51.760;14.300;2022-08-21T07:51:03;7.80;;;5.33;;
17592;SDS011;8915;51.760;14.300;2022-08-21T07:53:32;7.63;;;5.30;;
17592;SDS011;8915;51.760;14.300;2022-08-21T07:56:00;7.87;;;5.30;;
17592;SDS011;8915;51.760;14.300;2022-08-21T07:58:27;6.23;;;5.20;;
17592;SDS011;8915;51.760;14.300;2022-08-21T08:00:53;6.73;;;5.47;;
17592;SDS011;8915;51.760;14.300;2022-08-21T08:03:20;12.07;;;6.00;;
17592;SDS011;8915;51.760;14.300;2022-08-21T08:05:46;8.77;;;5.70;;
17592;SDS011;8915;51.760;14.300;2022-08-21T08:08:12;7.53;;;5.40;;
17592;SDS011;8915;51.760;14.300;2022-08-21T08:10:39;7.40;;;6.00;;
17592;SDS011;8915;51.760;14.300;2022-08-21T08:13:07;7.87;;;5.40;;
17592;SDS011;8915;51.760;14.300;2022-08-21T08:15:35;7.23;;;5.33;;
17592;SDS011;8915;51.760;14.300;2022-08-21T08:18:02;6.37;;;5.23;;
17592;SDS011;8915;51.760;14.300;2022-08-21T08:20:29;7.17;;;4.60;;
17592;SDS011;8915;51.760;14.300;2022-08-21T08:22:56;7.60;;;4.60;;
17592;SDS011;8915;51.760;14.300;2022-08-21T08:25:23;4.60;;;4.20;;
17592;SDS011;8915;51.760;14.300;2022-08-21T08:27:51;6.53;;;4.50;;
17592;SDS011;8915;51.760;14.300;2022-08-21T08:30:19;5.23;;;3.57;;
17592;SDS011;8915;51.760;14.300;2022-08-21T08:32:47;6.40;;;3.40;;
17592;SDS011;8915;51.760;14.300;2022-08-21T08:35:14;4.47;;;3.40;;
17592;SDS011;8915;51.760;14.300;2022-08-21T08:37:41;5.93;;;2.70;;
17592;SDS011;8915;51.760;14.300;2022-08-21T08:40:11;4.10;;;2.47;;
17592;SDS011;8915;51.760;14.300;2022-08-21T08:42:39;3.47;;;2.40;;
17592;SDS011;8915;51.760;14.300;2022-08-21T08:45:08;3.03;;;2.40;;
17592;SDS011;8915;51.760;14.300;2022-08-21T08:47:38;2.67;;;2.20;;
17592;SDS011;8915;51.760;14.300;2022-08-21T08:50:09;3.17;;;1.90;;
17592;SDS011;8915;51.760;14.300;2022-08-21T08:52:40;3.60;;;1.87;;
17592;SDS011;8915;51.760;14.300;2022-08-21T08:55:11;3.40;;;2.00;;
17592;SDS011;8915;51.760;14.300;2022-08-21T08:57:42;3.73;;;1.97;;
17592;SDS011;8915;51.760;14.300;2022-08-21T09:00:11;2.67;;;2.10;;
17592;SDS011;8915;51.760;14.300;2022-08-21T09:02:42;3.70;;;2.27;;
17592;SDS011;8915;51.760;14.300;2022-08-21T09:05:13;3.47;;;1.77;;
17592;SDS011;8915;51.760;14.300;2022-08-21T09:07:50;4.07;;;1.87;;
17592;SDS011;8915;51.760;14.300;2022-08-21T09:10:29;2.87;;;1.83;;
17592;SDS011;8915;51.760;14.300;2022-08-21T09:13:03;3.87;;;2.00;;
17592;SDS011;8915;51.760;14.300;2022-08-21T09:15:40;3.33;;;2.13;;
17592;SDS011;8915;51.760;14.300;2022-08-21T09:18:22;2.43;;;1.73;;
17592;SDS011;8915;51.760;14.300;2022-08-21T09:21:02;2.03;;;1.67;;
17592;SDS011;8915;51.760;14.300;2022-08-21T09:23:40;2.63;;;1.70;;
17592;SDS011;8915;51.760;14.300;2022-08-21T09:26:13;4.17;;;1.80;;
17592;SDS011;8915;51.760;14.300;2022-08-21T09:28:41;4.23;;;1.80;;
17592;SDS011;8915;51.760;14.300;2022-08-21T09:31:08;4.30;;;1.40;;
17592;SDS011;8915;51.760;14.300;2022-08-21T09:33:43;3.33;;;1.63;;
17592;SDS011;8915;51.760;14.300;2022-08-21T09:36:10;3.07;;;1.67;;
17592;SDS011;8915;51.760;14.300;2022-08-21T09:38:36;2.27;;;1.60;;
17592;SDS011;8915;51.760;14.300;2022-08-21T09:41:04;3.47;;;1.87;;
17592;SDS011;8915;51.760;14.300;2022-08-21T09:43:33;2.70;;;1.63;;
17592;SDS011;8915;51.760;14.300;2022-08-21T09:46:02;3.77;;;2.00;;
17592;SDS011;8915;51.760;14.300;2022-08-21T09:48:39;4.70;;;1.93;;
17592;SDS011;8915;51.760;14.300;2022-08-21T09:51:18;4.90;;;1.50;;
17592;SDS011;8915;51.760;14.300;2022-08-21T09:53:47;1.97;;;1.37;;
17592;SDS011;8915;51.760;14.300;2022-08-21T09:56:18;4.03;;;1.67;;
17592;SDS011;8915;51.760;14.300;2022-08-21T10:01:52;4.13;;;1.50;;
17592;SDS011;8915;51.760;14.300;2022-08-21T10:04:22;4.87;;;1.90;;
17592;SDS011;8915;51.760;14.300;2022-08-21T10:06:50;2.83;;;1.60;;
17592;SDS011;8915;51.760;14.300;2022-08-21T10:09:17;2.60;;;1.70;;
17592;SDS011;8915;51.760;14.300;2022-08-21T10:11:48;2.93;;;1.40;;
17592;SDS011;8915;51.760;14.300;2022-08-21T10:14:25;4.30;;;1.60;;
17592;SDS011;8915;51.760;14.300;2022-08-21T10:17:05;3.80;;;1.50;;
17592;SDS011;8915;51.760;14.300;2022-08-21T10:19:43;3.57;;;1.77;;
17592;SDS011;8915;51.760;14.300;2022-08-21T10:22:21;2.63;;;1.33;;
17592;SDS011;8915;51.760;14.300;2022-08-21T10:24:58;3.63;;;1.50;;
17592;SDS011;8915;51.760;14.300;2022-08-21T10:27:33;1.93;;;1.47;;
17592;SDS011;8915;51.760;14.300;2022-08-21T10:30:06;5.30;;;1.50;;
17592;SDS011;8915;51.760;14.300;2022-08-21T10:32:43;2.13;;;1.33;;
17592;SDS011;8915;51.760;14.300;2022-08-21T10:35:22;1.63;;;1.40;;
17592;SDS011;8915;51.760;14.300;2022-08-21T10:37:58;3.33;;;1.30;;
17592;SDS011;8915;51.760;14.300;2022-08-21T10:40:44;2.10;;;1.60;;
17592;SDS011;8915;51.760;14.300;2022-08-21T10:43:24;2.70;;;1.47;;
17592;SDS011;8915;51.760;14.300;2022-08-21T10:46:02;2.97;;;1.47;;
17592;SDS011;8915;51.760;14.300;2022-08-21T10:48:41;4.10;;;1.40;;
17592;SDS011;8915;51.760;14.300;2022-08-21T10:51:15;7.97;;;1.77;;
17592;SDS011;8915;51.760;14.300;2022-08-21T10:53:49;3.03;;;1.40;;
17592;SDS011;8915;51.760;14.300;2022-08-21T10:56:23;2.30;;;1.60;;
17592;SDS011;8915;51.760;14.300;2022-08-21T10:58:57;3.80;;;1.60;;
17592;SDS011;8915;51.760;14.300;2022-08-21T11:01:32;2.70;;;1.80;;
17592;SDS011;8915;51.760;14.300;2022-08-21T11:04:08;3.90;;;1.33;;
17592;SDS011;8915;51.760;14.300;2022-08-21T11:06:40;2.53;;;1.83;;
17592;SDS011;8915;51.760;14.300;2022-08-21T11:09:12;3.40;;;1.80;;
17592;SDS011;8915;51.760;14.300;2022-08-21T11:11:44;3.47;;;1.60;;
17592;SDS011;8915;51.760;14.300;2022-08-21T11:14:19;4.67;;;1.70;;
17592;SDS011;8915;51.760;14.300;2022-08-21T11:16:51;3.80;;;1.50;;
17592;SDS011;8915;51.760;14.300;2022-08-21T11:19:24;2.10;;;1.60;;
17592;SDS011;8915;51.760;14.300;2022-08-21T11:21:58;5.50;;;1.73;;
17592;SDS011;8915;51.760;14.300;2022-08-21T11:24:38;4.83;;;1.70;;
17592;SDS011;8915;51.760;14.300;2022-08-21T11:27:13;2.20;;;1.57;;
17592;SDS011;8915;51.760;14.300;2022-08-21T11:29:53;3.20;;;1.60;;
17592;SDS011;8915;51.760;14.300;2022-08-21T11:32:24;2.33;;;1.63;;
17592;SDS011;8915;51.760;14.300;2022-08-21T11:35:16;4.20;;;1.60;;
17592;SDS011;8915;51.760;14.300;2022-08-21T11:37:54;1.40;;;1.30;;
17592;SDS011;8915;51.760;14.300;2022-08-21T11:40:34;3.73;;;1.83;;
17592;SDS011;8915;51.760;14.300;2022-08-21T11:43:12;3.00;;;1.70;;
17592;SDS011;8915;51.760;14.300;2022-08-21T11:45:45;3.47;;;1.57;;
17592;SDS011;8915;51.760;14.300;2022-08-21T11:48:17;2.77;;;1.80;;
17592;SDS011;8915;51.760;14.300;2022-08-21T11:50:57;2.00;;;1.53;;
17592;SDS011;8915;51.760;14.300;2022-08-21T11:53:28;2.33;;;1.60;;
17592;SDS011;8915;51.760;14.300;2022-08-21T11:56:01;1.17;;;1.07;;
17592;SDS011;8915;51.760;14.300;2022-08-21T11:58:32;3.63;;;1.57;;
17592;SDS011;8915;51.760;14.300;2022-08-21T12:01:05;1.97;;;1.63;;
17592;SDS011;8915;51.760;14.300;2022-08-21T12:03:35;2.13;;;1.50;;
17592;SDS011;8915;51.760;14.300;2022-08-21T12:06:05;4.00;;;1.43;;
17592;SDS011;8915;51.760;14.300;2022-08-21T12:08:36;1.83;;;1.30;;
17592;SDS011;8915;51.760;14.300;2022-08-21T12:11:05;1.80;;;1.40;;
17592;SDS011;8915;51.760;14.300;2022-08-21T12:13:34;2.27;;;1.30;;
17592;SDS011;8915;51.760;14.300;2022-08-21T12:16:06;1.90;;;1.30;;
17592;SDS011;8915;51.760;14.300;2022-08-21T12:18:35;2.47;;;1.40;;
17592;SDS011;8915;51.760;14.300;2022-08-21T12:21:04;2.43;;;1.40;;
17592;SDS011;8915;51.760;14.300;2022-08-21T12:23:45;4.53;;;1.60;;
17592;SDS011;8915;51.760;14.300;2022-08-21T12:26:17;1.53;;;1.20;;
17592;SDS011;8915;51.760;14.300;2022-08-21T12:28:50;2.20;;;1.57;;
17592;SDS011;8915;51.760;14.300;2022-08-21T12:31:18;2.03;;;1.33;;
17592;SDS011;8915;51.760;14.300;2022-08-21T12:33:49;3.65;;;1.20;;
17592;SDS011;8915;51.760;14.300;2022-08-21T12:36:20;2.53;;;1.35;;
17592;SDS011;8915;51.760;14.300;2022-08-21T12:38:52;1.60;;;1.05;;
17592;SDS011;8915;51.760;14.300;2022-08-21T12:41:24;3.15;;;1.30;;
17592;SDS011;8915;51.760;14.300;2022-08-21T12:43:55;1.40;;;1.20;;
17592;SDS011;8915;51.760;14.300;2022-08-21T12:46:26;1.15;;;1.00;;
17592;SDS011;8915;51.760;14.300;2022-08-21T12:49:00;2.77;;;1.20;;
17592;SDS011;8915;51.760;14.300;2022-08-21T12:51:36;2.35;;;1.67;;
17592;SDS011;8915;51.760;14.300;2022-08-21T12:54:23;5.75;;;1.35;;
17592;SDS011;8915;51.760;14.300;2022-08-21T12:56:55;1.48;;;1.20;;
17592;SDS011;8915;51.760;14.300;2022-08-21T12:59:23;1.02;;;1.02;;
17592;SDS011;8915;51.760;14.300;2022-08-21T13:01:50;1.58;;;1.30;;
17592;SDS011;8915;51.760;14.300;2022-08-21T13:04:20;1.88;;;1.10;;
17592;SDS011;8915;51.760;14.300;2022-08-21T13:06:50;1.77;;;1.50;;
17592;SDS011;8915;51.760;14.300;2022-08-21T13:09:19;2.75;;;1.45;;
17592;SDS011;8915;51.760;14.300;2022-08-21T13:11:51;2.92;;;1.33;;
17592;SDS011;8915;51.760;14.300;2022-08-21T13:14:20;4.40;;;1.60;;
17592;SDS011;8915;51.760;14.300;2022-08-21T13:16:52;4.53;;;1.30;;
17592;SDS011;8915;51.760;14.300;2022-08-21T13:19:19;2.08;;;1.30;;
17592;SDS011;8915;51.760;14.300;2022-08-21T13:21:46;2.30;;;1.30;;
17592;SDS011;8915;51.760;14.300;2022-08-21T13:24:13;1.45;;;1.00;;
17592;SDS011;8915;51.760;14.300;2022-08-21T13:26:44;1.30;;;1.20;;
17592;SDS011;8915;51.760;14.300;2022-08-21T13:29:11;2.20;;;1.27;;
17592;SDS011;8915;51.760;14.300;2022-08-21T13:31:40;1.80;;;1.20;;
17592;SDS011;8915;51.760;14.300;2022-08-21T13:34:08;2.90;;;1.35;;
17592;SDS011;8915;51.760;14.300;2022-08-21T13:36:39;1.88;;;1.27;;
17592;SDS011;8915;51.760;14.300;2022-08-21T13:39:08;1.48;;;1.00;;
17592;SDS011;8915;51.760;14.300;2022-08-21T13:41:39;2.25;;;1.40;;
17592;SDS011;8915;51.760;14.300;2022-08-21T13:44:15;3.40;;;1.38;;
17592;SDS011;8915;51.760;14.300;2022-08-21T13:46:43;1.65;;;1.30;;
17592;SDS011;8915;51.760;14.300;2022-08-21T13:49:10;1.40;;;1.10;;
17592;SDS011;8915;51.760;14.300;2022-08-21T13:51:40;1.90;;;1.30;;
17592;SDS011;8915;51.760;14.300;2022-08-21T13:54:13;2.35;;;1.30;;
17592;SDS011;8915;51.760;14.300;2022-08-21T13:56:42;1.00;;;1.00;;
17592;SDS011;8915;51.760;14.300;2022-08-21T13:59:10;2.17;;;1.27;;
17592;SDS011;8915;51.760;14.300;2022-08-21T14:01:39;2.83;;;1.25;;
17592;SDS011;8915;51.760;14.300;2022-08-21T14:04:16;3.33;;;1.13;;
17592;SDS011;8915;51.760;14.300;2022-08-21T14:06:46;3.00;;;1.48;;
17592;SDS011;8915;51.760;14.300;2022-08-21T14:09:13;2.25;;;1.40;;
17592;SDS011;8915;51.760;14.300;2022-08-21T14:11:50;1.98;;;1.20;;
17592;SDS011;8915;51.760;14.300;2022-08-21T14:14:20;1.52;;;1.10;;
17592;SDS011;8915;51.760;14.300;2022-08-21T14:16:54;1.83;;;1.10;;
17592;SDS011;8915;51.760;14.300;2022-08-21T14:19:23;5.18;;;1.50;;
17592;SDS011;8915;51.760;14.300;2022-08-21T14:21:51;1.50;;;1.10;;
17592;SDS011;8915;51.760;14.300;2022-08-21T14:24:26;2.47;;;1.13;;
17592;SDS011;8915;51.760;14.300;2022-08-21T14:26:55;1.52;;;1.30;;
17592;SDS011;8915;51.760;14.300;2022-08-21T14:29:25;1.67;;;1.20;;
17592;SDS011;8915;51.760;14.300;2022-08-21T14:31:56;4.05;;;1.20;;
17592;SDS011;8915;51.760;14.300;2022-08-21T14:34:24;2.72;;;1.30;;
17592;SDS011;8915;51.760;14.300;2022-08-21T14:36:53;1.48;;;1.38;;
17592;SDS011;8915;51.760;14.300;2022-08-21T14:39:21;2.13;;;1.17;;
17592;SDS011;8915;51.760;14.300;2022-08-21T14:41:48;3.67;;;1.30;;
17592;SDS011;8915;51.760;14.300;2022-08-21T14:44:15;1.20;;;1.10;;
17592;SDS011;8915;51.760;14.300;2022-08-21T14:46:42;3.28;;;1.20;;
17592;SDS011;8915;51.760;14.300;2022-08-21T14:49:10;2.13;;;1.30;;
17592;SDS011;8915;51.760;14.300;2022-08-21T14:51:37;1.60;;;1.40;;
17592;SDS011;8915;51.760;14.300;2022-08-21T14:54:04;1.40;;;1.10;;
17592;SDS011;8915;51.760;14.300;2022-08-21T14:56:31;1.75;;;1.40;;